sensor_id;sensor_type;location;lat;lon;timestamp;P1;durP1;ratioP1;P2;durP2;ratioP2
31680;SDS011;18281;51.364;9.566;2023-02-10T00:00:44;46.20;;;23.02;;
31680;SDS011;18281;51.364;9.566;2023-02-10T00:03:09;44.85;;;22.52;;
31680;SDS011;18281;51.364;9.566;2023-02-10T00:05:34;49.80;;;23.33;;
31680;SDS011;18281;51.364;9.566;2023-02-10T00:08:00;48.78;;;22.73;;
31680;SDS011;18281;51.364;9.566;2023-02-10T00:10:25;40.35;;;22.10;;
31680;SDS011;18281;51.364;9.566;2023-02-10T00:12:51;42.95;;;22.85;;
31680;SDS011;18281;51.364;9.566;2023-02-10T00:15:16;54.38;;;24.67;;
31680;SDS011;18281;51.364;9.566;2023-02-10T00:17:41;48.00;;;22.55;;
31680;SDS011;18281;51.364;9.566;2023-02-10T00:20:07;47.00;;;22.90;;
31680;SDS011;18281;51.364;9.566;2023-02-10T00:22:33;51.58;;;24.30;;
31680;SDS011;18281;51.364;9.566;2023-02-10T00:24:59;48.72;;;23.77;;
31680;SDS011;18281;51.364;9.566;2023-02-10T00:27:24;50.67;;;24.08;;
31680;SDS011;18281;51.364;9.566;2023-02-10T00:29:51;50.92;;;23.77;;
31680;SDS011;18281;51.364;9.566;2023-02-10T00:32:17;49.97;;;24.08;;
31680;SDS011;18281;51.364;9.566;2023-02-10T00:34:43;47.90;;;22.95;;
31680;SDS011;18281;51.364;9.566;2023-02-10T00:37:10;42.63;;;21.75;;
31680;SDS011;18281;51.364;9.566;2023-02-10T00:39:35;50.80;;;22.45;;
31680;SDS011;18281;51.364;9.566;2023-02-10T00:42:01;49.63;;;22.90;;
31680;SDS011;18281;51.364;9.566;2023-02-10T00:44:26;47.92;;;23.75;;
31680;SDS011;18281;51.364;9.566;2023-02-10T00:46:51;49.53;;;23.80;;
31680;SDS011;18281;51.364;9.566;2023-02-10T00:49:17;46.15;;;23.00;;
31680;SDS011;18281;51.364;9.566;2023-02-10T00:51:42;44.28;;;22.77;;
31680;SDS011;18281;51.364;9.566;2023-02-10T00:54:08;46.53;;;23.17;;
31680;SDS011;18281;51.364;9.566;2023-02-10T00:56:35;47.45;;;23.17;;
31680;SDS011;18281;51.364;9.566;2023-02-10T00:59:01;51.95;;;23.27;;
31680;SDS011;18281;51.364;9.566;2023-02-10T01:01:26;46.95;;;22.95;;
31680;SDS011;18281;51.364;9.566;2023-02-10T01:03:51;51.22;;;24.67;;
31680;SDS011;18281;51.364;9.566;2023-02-10T01:06:17;51.70;;;24.98;;
31680;SDS011;18281;51.364;9.566;2023-02-10T01:08:42;48.72;;;24.58;;
31680;SDS011;18281;51.364;9.566;2023-02-10T01:11:09;48.38;;;24.08;;
31680;SDS011;18281;51.364;9.566;2023-02-10T01:13:36;50.47;;;25.63;;
31680;SDS011;18281;51.364;9.566;2023-02-10T01:16:06;48.83;;;24.83;;
31680;SDS011;18281;51.364;9.566;2023-02-10T01:18:37;48.33;;;25.02;;
31680;SDS011;18281;51.364;9.566;2023-02-10T01:21:10;45.97;;;24.45;;
31680;SDS011;18281;51.364;9.566;2023-02-10T01:23:40;51.13;;;25.05;;
31680;SDS011;18281;51.364;9.566;2023-02-10T01:26:06;52.17;;;24.55;;
31680;SDS011;18281;51.364;9.566;2023-02-10T01:28:32;50.13;;;23.80;;
31680;SDS011;18281;51.364;9.566;2023-02-10T01:30:57;51.28;;;25.27;;
31680;SDS011;18281;51.364;9.566;2023-02-10T01:33:23;51.15;;;24.98;;
31680;SDS011;18281;51.364;9.566;2023-02-10T01:35:48;50.53;;;23.40;;
31680;SDS011;18281;51.364;9.566;2023-02-10T01:38:13;48.42;;;24.05;;
31680;SDS011;18281;51.364;9.566;2023-02-10T01:40:39;48.63;;;24.15;;
31680;SDS011;18281;51.364;9.566;2023-02-10T01:43:09;49.97;;;24.20;;
31680;SDS011;18281;51.364;9.566;2023-02-10T01:45:38;44.25;;;22.55;;
31680;SDS011;18281;51.364;9.566;2023-02-10T01:48:04;44.95;;;22.67;;
31680;SDS011;18281;51.364;9.566;2023-02-10T01:50:40;47.50;;;23.23;;
31680;SDS011;18281;51.364;9.566;2023-02-10T01:53:11;47.40;;;24.50;;
31680;SDS011;18281;51.364;9.566;2023-02-10T01:55:39;46.13;;;22.45;;
31680;SDS011;18281;51.364;9.566;2023-02-10T01:58:07;46.55;;;23.98;;
31680;SDS011;18281;51.364;9.566;2023-02-10T02:00:35;44.50;;;21.92;;
31680;SDS011;18281;51.364;9.566;2023-02-10T02:03:01;54.25;;;24.63;;
31680;SDS011;18281;51.364;9.566;2023-02-10T02:05:33;46.80;;;22.40;;
31680;SDS011;18281;51.364;9.566;2023-02-10T02:08:03;45.20;;;22.85;;
31680;SDS011;18281;51.364;9.566;2023-02-10T02:10:40;42.90;;;22.45;;
31680;SDS011;18281;51.364;9.566;2023-02-10T02:13:21;41.97;;;22.52;;
31680;SDS011;18281;51.364;9.566;2023-02-10T02:16:04;43.65;;;22.88;;
31680;SDS011;18281;51.364;9.566;2023-02-10T02:19:05;43.65;;;22.08;;
31680;SDS011;18281;51.364;9.566;2023-02-10T02:27:36;50.28;;;23.63;;
31680;SDS011;18281;51.364;9.566;2023-02-10T02:33:51;46.30;;;23.30;;
31680;SDS011;18281;51.364;9.566;2023-02-10T02:36:24;47.05;;;23.13;;
31680;SDS011;18281;51.364;9.566;2023-02-10T02:38:58;51.53;;;23.40;;
31680;SDS011;18281;51.364;9.566;2023-02-10T02:41:26;44.35;;;22.70;;
31680;SDS011;18281;51.364;9.566;2023-02-10T02:43:52;46.58;;;23.42;;
31680;SDS011;18281;51.364;9.566;2023-02-10T02:48:57;45.28;;;22.80;;
31680;SDS011;18281;51.364;9.566;2023-02-10T02:51:42;46.45;;;22.38;;
31680;SDS011;18281;51.364;9.566;2023-02-10T02:59:48;45.92;;;22.90;;
31680;SDS011;18281;51.364;9.566;2023-02-10T03:02:17;41.85;;;22.42;;
31680;SDS011;18281;51.364;9.566;2023-02-10T03:04:45;43.92;;;21.65;;
31680;SDS011;18281;51.364;9.566;2023-02-10T03:07:13;46.95;;;23.23;;
31680;SDS011;18281;51.364;9.566;2023-02-10T03:09:39;50.60;;;23.85;;
31680;SDS011;18281;51.364;9.566;2023-02-10T03:12:05;48.55;;;23.73;;
31680;SDS011;18281;51.364;9.566;2023-02-10T03:14:31;44.85;;;23.35;;
31680;SDS011;18281;51.364;9.566;2023-02-10T03:16:57;45.08;;;23.73;;
31680;SDS011;18281;51.364;9.566;2023-02-10T03:19:22;48.40;;;24.40;;
31680;SDS011;18281;51.364;9.566;2023-02-10T03:21:48;49.53;;;24.10;;
31680;SDS011;18281;51.364;9.566;2023-02-10T03:24:13;47.53;;;24.70;;
31680;SDS011;18281;51.364;9.566;2023-02-10T03:26:39;49.35;;;24.33;;
31680;SDS011;18281;51.364;9.566;2023-02-10T03:29:05;50.30;;;24.13;;
31680;SDS011;18281;51.364;9.566;2023-02-10T03:31:31;45.90;;;24.17;;
31680;SDS011;18281;51.364;9.566;2023-02-10T03:33:56;47.28;;;23.00;;
31680;SDS011;18281;51.364;9.566;2023-02-10T03:36:22;45.35;;;23.05;;
31680;SDS011;18281;51.364;9.566;2023-02-10T03:38:47;47.08;;;23.40;;
31680;SDS011;18281;51.364;9.566;2023-02-10T03:41:13;51.38;;;23.80;;
31680;SDS011;18281;51.364;9.566;2023-02-10T03:43:39;49.00;;;25.45;;
31680;SDS011;18281;51.364;9.566;2023-02-10T03:46:06;47.70;;;23.42;;
31680;SDS011;18281;51.364;9.566;2023-02-10T03:48:31;47.67;;;23.50;;
31680;SDS011;18281;51.364;9.566;2023-02-10T03:50:57;46.63;;;23.77;;
31680;SDS011;18281;51.364;9.566;2023-02-10T03:53:24;52.25;;;24.10;;
31680;SDS011;18281;51.364;9.566;2023-02-10T03:55:50;53.10;;;24.40;;
31680;SDS011;18281;51.364;9.566;2023-02-10T03:58:15;55.10;;;24.73;;
31680;SDS011;18281;51.364;9.566;2023-02-10T04:00:41;47.72;;;24.52;;
31680;SDS011;18281;51.364;9.566;2023-02-10T04:03:06;53.15;;;24.77;;
31680;SDS011;18281;51.364;9.566;2023-02-10T04:05:31;51.95;;;24.23;;
31680;SDS011;18281;51.364;9.566;2023-02-10T04:07:57;51.42;;;25.23;;
31680;SDS011;18281;51.364;9.566;2023-02-10T04:10:22;50.45;;;24.45;;
31680;SDS011;18281;51.364;9.566;2023-02-10T04:12:48;46.88;;;24.45;;
31680;SDS011;18281;51.364;9.566;2023-02-10T04:15:14;51.20;;;25.55;;
31680;SDS011;18281;51.364;9.566;2023-02-10T04:17:39;50.30;;;24.73;;
31680;SDS011;18281;51.364;9.566;2023-02-10T04:20:04;50.67;;;24.92;;
31680;SDS011;18281;51.364;9.566;2023-02-10T04:22:30;50.53;;;24.83;;
31680;SDS011;18281;51.364;9.566;2023-02-10T04:24:56;51.20;;;24.85;;
31680;SDS011;18281;51.364;9.566;2023-02-10T04:27:21;49.75;;;24.63;;
31680;SDS011;18281;51.364;9.566;2023-02-10T04:29:47;48.67;;;24.92;;
31680;SDS011;18281;51.364;9.566;2023-02-10T04:32:12;50.05;;;24.60;;
31680;SDS011;18281;51.364;9.566;2023-02-10T04:34:38;49.85;;;24.15;;
31680;SDS011;18281;51.364;9.566;2023-02-10T04:37:03;49.40;;;24.33;;
31680;SDS011;18281;51.364;9.566;2023-02-10T04:39:28;46.88;;;23.08;;
31680;SDS011;18281;51.364;9.566;2023-02-10T04:41:54;51.10;;;23.73;;
31680;SDS011;18281;51.364;9.566;2023-02-10T04:44:20;50.70;;;25.73;;
31680;SDS011;18281;51.364;9.566;2023-02-10T04:46:45;47.75;;;23.38;;
31680;SDS011;18281;51.364;9.566;2023-02-10T04:49:10;43.35;;;23.63;;
31680;SDS011;18281;51.364;9.566;2023-02-10T04:51:36;51.20;;;23.48;;
31680;SDS011;18281;51.364;9.566;2023-02-10T04:54:01;50.63;;;24.92;;
31680;SDS011;18281;51.364;9.566;2023-02-10T04:56:26;44.53;;;23.15;;
31680;SDS011;18281;51.364;9.566;2023-02-10T04:58:52;50.20;;;23.88;;
31680;SDS011;18281;51.364;9.566;2023-02-10T05:01:17;46.15;;;24.02;;
31680;SDS011;18281;51.364;9.566;2023-02-10T05:03:42;51.20;;;24.33;;
31680;SDS011;18281;51.364;9.566;2023-02-10T05:06:08;47.35;;;24.42;;
31680;SDS011;18281;51.364;9.566;2023-02-10T05:08:36;49.42;;;22.85;;
31680;SDS011;18281;51.364;9.566;2023-02-10T05:11:06;45.58;;;22.95;;
31680;SDS011;18281;51.364;9.566;2023-02-10T05:13:33;49.25;;;24.95;;
31680;SDS011;18281;51.364;9.566;2023-02-10T05:15:58;47.17;;;24.30;;
31680;SDS011;18281;51.364;9.566;2023-02-10T05:18:23;49.38;;;24.98;;
31680;SDS011;18281;51.364;9.566;2023-02-10T05:20:49;47.60;;;24.88;;
31680;SDS011;18281;51.364;9.566;2023-02-10T05:23:15;51.72;;;24.55;;
31680;SDS011;18281;51.364;9.566;2023-02-10T05:25:40;49.92;;;25.30;;
31680;SDS011;18281;51.364;9.566;2023-02-10T05:28:05;45.70;;;23.50;;
31680;SDS011;18281;51.364;9.566;2023-02-10T05:30:32;48.08;;;22.95;;
31680;SDS011;18281;51.364;9.566;2023-02-10T05:33:02;47.40;;;23.80;;
31680;SDS011;18281;51.364;9.566;2023-02-10T05:35:27;45.30;;;22.42;;
31680;SDS011;18281;51.364;9.566;2023-02-10T05:37:53;55.65;;;24.52;;
31680;SDS011;18281;51.364;9.566;2023-02-10T05:40:18;51.65;;;25.55;;
31680;SDS011;18281;51.364;9.566;2023-02-10T05:42:44;46.97;;;24.30;;
31680;SDS011;18281;51.364;9.566;2023-02-10T05:45:09;53.00;;;23.85;;
31680;SDS011;18281;51.364;9.566;2023-02-10T05:47:34;52.92;;;25.15;;
31680;SDS011;18281;51.364;9.566;2023-02-10T05:50:00;49.15;;;24.85;;
31680;SDS011;18281;51.364;9.566;2023-02-10T05:52:25;53.60;;;25.40;;
31680;SDS011;18281;51.364;9.566;2023-02-10T05:54:50;49.00;;;24.80;;
31680;SDS011;18281;51.364;9.566;2023-02-10T05:57:15;52.05;;;26.98;;
31680;SDS011;18281;51.364;9.566;2023-02-10T05:59:41;50.75;;;25.38;;
31680;SDS011;18281;51.364;9.566;2023-02-10T06:02:07;51.63;;;26.17;;
31680;SDS011;18281;51.364;9.566;2023-02-10T06:04:32;52.65;;;25.48;;
31680;SDS011;18281;51.364;9.566;2023-02-10T06:06:58;52.72;;;25.67;;
31680;SDS011;18281;51.364;9.566;2023-02-10T06:09:23;55.80;;;25.95;;
31680;SDS011;18281;51.364;9.566;2023-02-10T06:11:51;48.28;;;24.33;;
31680;SDS011;18281;51.364;9.566;2023-02-10T06:14:17;45.53;;;23.38;;
31680;SDS011;18281;51.364;9.566;2023-02-10T06:16:43;52.20;;;25.15;;
31680;SDS011;18281;51.364;9.566;2023-02-10T06:19:09;41.22;;;23.38;;
31680;SDS011;18281;51.364;9.566;2023-02-10T06:21:34;49.78;;;24.75;;
31680;SDS011;18281;51.364;9.566;2023-02-10T06:24:00;46.75;;;24.55;;
31680;SDS011;18281;51.364;9.566;2023-02-10T06:26:25;43.75;;;22.75;;
31680;SDS011;18281;51.364;9.566;2023-02-10T06:28:52;47.70;;;23.38;;
31680;SDS011;18281;51.364;9.566;2023-02-10T06:31:18;50.10;;;23.58;;
31680;SDS011;18281;51.364;9.566;2023-02-10T06:33:43;47.40;;;23.60;;
31680;SDS011;18281;51.364;9.566;2023-02-10T06:36:09;52.63;;;23.30;;
31680;SDS011;18281;51.364;9.566;2023-02-10T06:38:35;50.35;;;24.02;;
31680;SDS011;18281;51.364;9.566;2023-02-10T06:41:01;42.95;;;22.02;;
31680;SDS011;18281;51.364;9.566;2023-02-10T06:43:27;51.75;;;24.38;;
31680;SDS011;18281;51.364;9.566;2023-02-10T06:45:52;46.53;;;24.10;;
31680;SDS011;18281;51.364;9.566;2023-02-10T06:48:18;49.58;;;24.38;;
31680;SDS011;18281;51.364;9.566;2023-02-10T06:50:44;45.47;;;23.92;;
31680;SDS011;18281;51.364;9.566;2023-02-10T06:53:09;51.30;;;24.40;;
31680;SDS011;18281;51.364;9.566;2023-02-10T06:55:34;47.38;;;24.05;;
31680;SDS011;18281;51.364;9.566;2023-02-10T06:58:00;47.97;;;23.65;;
31680;SDS011;18281;51.364;9.566;2023-02-10T07:00:27;47.28;;;24.95;;
31680;SDS011;18281;51.364;9.566;2023-02-10T07:02:53;49.75;;;23.98;;
31680;SDS011;18281;51.364;9.566;2023-02-10T07:05:19;46.13;;;24.23;;
31680;SDS011;18281;51.364;9.566;2023-02-10T07:07:44;49.85;;;24.77;;
31680;SDS011;18281;51.364;9.566;2023-02-10T07:10:10;46.25;;;23.83;;
31680;SDS011;18281;51.364;9.566;2023-02-10T07:12:36;49.03;;;24.00;;
31680;SDS011;18281;51.364;9.566;2023-02-10T07:15:01;54.75;;;24.95;;
31680;SDS011;18281;51.364;9.566;2023-02-10T07:17:27;45.33;;;22.70;;
31680;SDS011;18281;51.364;9.566;2023-02-10T07:19:52;52.22;;;24.88;;
31680;SDS011;18281;51.364;9.566;2023-02-10T07:22:18;49.20;;;24.98;;
31680;SDS011;18281;51.364;9.566;2023-02-10T07:24:43;46.70;;;24.85;;
31680;SDS011;18281;51.364;9.566;2023-02-10T07:27:09;46.95;;;24.13;;
31680;SDS011;18281;51.364;9.566;2023-02-10T07:29:34;49.20;;;24.30;;
31680;SDS011;18281;51.364;9.566;2023-02-10T07:31:59;47.05;;;24.45;;
31680;SDS011;18281;51.364;9.566;2023-02-10T07:34:25;49.15;;;24.48;;
31680;SDS011;18281;51.364;9.566;2023-02-10T07:36:51;51.67;;;24.55;;
31680;SDS011;18281;51.364;9.566;2023-02-10T07:39:28;49.45;;;25.45;;
31680;SDS011;18281;51.364;9.566;2023-02-10T07:41:53;53.53;;;25.67;;
31680;SDS011;18281;51.364;9.566;2023-02-10T07:44:18;50.65;;;26.02;;
31680;SDS011;18281;51.364;9.566;2023-02-10T07:46:46;50.25;;;25.88;;
31680;SDS011;18281;51.364;9.566;2023-02-10T07:49:11;42.10;;;20.02;;
31680;SDS011;18281;51.364;9.566;2023-02-10T07:51:37;39.10;;;19.73;;
31680;SDS011;18281;51.364;9.566;2023-02-10T07:54:03;42.45;;;21.50;;
31680;SDS011;18281;51.364;9.566;2023-02-10T07:56:28;43.45;;;23.45;;
31680;SDS011;18281;51.364;9.566;2023-02-10T07:58:53;50.70;;;25.23;;
31680;SDS011;18281;51.364;9.566;2023-02-10T08:01:19;53.97;;;25.65;;
31680;SDS011;18281;51.364;9.566;2023-02-10T08:03:44;60.47;;;27.58;;
31680;SDS011;18281;51.364;9.566;2023-02-10T08:06:10;54.35;;;25.52;;
31680;SDS011;18281;51.364;9.566;2023-02-10T08:08:35;55.33;;;26.70;;
31680;SDS011;18281;51.364;9.566;2023-02-10T08:11:04;58.70;;;26.55;;
31680;SDS011;18281;51.364;9.566;2023-02-10T08:13:31;54.70;;;27.08;;
31680;SDS011;18281;51.364;9.566;2023-02-10T08:15:57;53.58;;;26.95;;
31680;SDS011;18281;51.364;9.566;2023-02-10T08:18:23;59.22;;;27.38;;
31680;SDS011;18281;51.364;9.566;2023-02-10T08:20:48;59.40;;;28.27;;
31680;SDS011;18281;51.364;9.566;2023-02-10T08:23:14;62.17;;;27.45;;
31680;SDS011;18281;51.364;9.566;2023-02-10T08:25:41;59.38;;;28.98;;
31680;SDS011;18281;51.364;9.566;2023-02-10T08:28:07;55.60;;;27.13;;
31680;SDS011;18281;51.364;9.566;2023-02-10T08:30:32;55.17;;;28.10;;
31680;SDS011;18281;51.364;9.566;2023-02-10T08:32:58;54.72;;;27.67;;
31680;SDS011;18281;51.364;9.566;2023-02-10T08:35:23;60.95;;;27.60;;
31680;SDS011;18281;51.364;9.566;2023-02-10T08:37:49;54.45;;;26.02;;
31680;SDS011;18281;51.364;9.566;2023-02-10T08:40:15;56.70;;;27.00;;
31680;SDS011;18281;51.364;9.566;2023-02-10T08:42:40;52.80;;;25.55;;
31680;SDS011;18281;51.364;9.566;2023-02-10T08:45:05;56.28;;;27.13;;
31680;SDS011;18281;51.364;9.566;2023-02-10T08:47:32;52.40;;;26.58;;
31680;SDS011;18281;51.364;9.566;2023-02-10T08:49:58;51.60;;;25.85;;
31680;SDS011;18281;51.364;9.566;2023-02-10T08:52:23;58.55;;;27.60;;
31680;SDS011;18281;51.364;9.566;2023-02-10T08:54:49;55.20;;;28.55;;
31680;SDS011;18281;51.364;9.566;2023-02-10T08:57:14;56.17;;;28.75;;
31680;SDS011;18281;51.364;9.566;2023-02-10T08:59:39;59.10;;;27.75;;
31680;SDS011;18281;51.364;9.566;2023-02-10T09:02:05;61.55;;;27.92;;
31680;SDS011;18281;51.364;9.566;2023-02-10T09:04:30;60.10;;;27.90;;
31680;SDS011;18281;51.364;9.566;2023-02-10T09:06:56;55.50;;;27.60;;
31680;SDS011;18281;51.364;9.566;2023-02-10T09:09:22;54.97;;;26.92;;
31680;SDS011;18281;51.364;9.566;2023-02-10T09:11:50;60.63;;;27.67;;
31680;SDS011;18281;51.364;9.566;2023-02-10T09:14:16;58.20;;;27.50;;
31680;SDS011;18281;51.364;9.566;2023-02-10T09:16:42;63.58;;;27.25;;
31680;SDS011;18281;51.364;9.566;2023-02-10T09:19:08;47.15;;;21.00;;
31680;SDS011;18281;51.364;9.566;2023-02-10T09:21:33;53.67;;;22.20;;
31680;SDS011;18281;51.364;9.566;2023-02-10T09:23:58;57.40;;;26.80;;
31680;SDS011;18281;51.364;9.566;2023-02-10T09:26:24;55.88;;;26.27;;
31680;SDS011;18281;51.364;9.566;2023-02-10T09:28:49;78.18;;;32.60;;
31680;SDS011;18281;51.364;9.566;2023-02-10T09:31:15;80.43;;;31.73;;
31680;SDS011;18281;51.364;9.566;2023-02-10T09:33:41;72.78;;;31.58;;
31680;SDS011;18281;51.364;9.566;2023-02-10T09:36:07;80.95;;;31.83;;
31680;SDS011;18281;51.364;9.566;2023-02-10T09:38:37;71.25;;;31.77;;
31680;SDS011;18281;51.364;9.566;2023-02-10T09:46:09;66.93;;;30.23;;
31680;SDS011;18281;51.364;9.566;2023-02-10T09:51:38;66.90;;;30.08;;
31680;SDS011;18281;51.364;9.566;2023-02-10T09:54:10;67.55;;;29.80;;
31680;SDS011;18281;51.364;9.566;2023-02-10T09:56:37;70.50;;;30.83;;
31680;SDS011;18281;51.364;9.566;2023-02-10T09:59:04;71.88;;;30.98;;
31680;SDS011;18281;51.364;9.566;2023-02-10T10:01:32;73.13;;;32.03;;
31680;SDS011;18281;51.364;9.566;2023-02-10T10:04:04;69.93;;;32.22;;
31680;SDS011;18281;51.364;9.566;2023-02-10T10:06:36;66.65;;;31.42;;
31680;SDS011;18281;51.364;9.566;2023-02-10T10:14:23;63.53;;;29.35;;
31680;SDS011;18281;51.364;9.566;2023-02-10T10:22:30;67.45;;;29.67;;
31680;SDS011;18281;51.364;9.566;2023-02-10T10:30:31;68.45;;;29.20;;
31680;SDS011;18281;51.364;9.566;2023-02-10T10:33:14;66.13;;;30.02;;
31680;SDS011;18281;51.364;9.566;2023-02-10T10:35:46;66.43;;;29.08;;
31680;SDS011;18281;51.364;9.566;2023-02-10T10:38:13;67.70;;;28.45;;
31680;SDS011;18281;51.364;9.566;2023-02-10T10:40:40;69.93;;;29.58;;
31680;SDS011;18281;51.364;9.566;2023-02-10T10:45:40;64.13;;;28.70;;
31680;SDS011;18281;51.364;9.566;2023-02-10T10:48:18;62.22;;;31.15;;
31680;SDS011;18281;51.364;9.566;2023-02-10T10:50:51;70.70;;;31.50;;
31680;SDS011;18281;51.364;9.566;2023-02-10T10:53:22;65.32;;;30.65;;
31680;SDS011;18281;51.364;9.566;2023-02-10T10:56:16;66.63;;;30.48;;
31680;SDS011;18281;51.364;9.566;2023-02-10T10:58:46;71.03;;;32.63;;
31680;SDS011;18281;51.364;9.566;2023-02-10T11:01:13;71.15;;;30.13;;
31680;SDS011;18281;51.364;9.566;2023-02-10T11:03:39;72.78;;;32.42;;
31680;SDS011;18281;51.364;9.566;2023-02-10T11:06:12;66.75;;;29.55;;
31680;SDS011;18281;51.364;9.566;2023-02-10T11:11:07;62.50;;;28.95;;
31680;SDS011;18281;51.364;9.566;2023-02-10T11:13:37;68.03;;;30.35;;
31680;SDS011;18281;51.364;9.566;2023-02-10T11:16:09;64.33;;;31.00;;
31680;SDS011;18281;51.364;9.566;2023-02-10T11:18:37;73.50;;;30.05;;
31680;SDS011;18281;51.364;9.566;2023-02-10T11:21:04;76.28;;;33.20;;
31680;SDS011;18281;51.364;9.566;2023-02-10T11:23:35;72.22;;;30.83;;
31680;SDS011;18281;51.364;9.566;2023-02-10T11:26:25;67.75;;;30.05;;
31680;SDS011;18281;51.364;9.566;2023-02-10T11:28:52;71.00;;;31.45;;
31680;SDS011;18281;51.364;9.566;2023-02-10T11:36:37;64.72;;;30.38;;
31680;SDS011;18281;51.364;9.566;2023-02-10T11:39:06;68.78;;;32.22;;
31680;SDS011;18281;51.364;9.566;2023-02-10T11:41:42;68.78;;;31.58;;
31680;SDS011;18281;51.364;9.566;2023-02-10T11:44:24;66.60;;;30.23;;
31680;SDS011;18281;51.364;9.566;2023-02-10T11:46:54;67.80;;;29.77;;
31680;SDS011;18281;51.364;9.566;2023-02-10T11:49:24;66.15;;;31.33;;
31680;SDS011;18281;51.364;9.566;2023-02-10T11:51:53;54.92;;;23.73;;
31680;SDS011;18281;51.364;9.566;2023-02-10T11:54:20;80.45;;;34.35;;
31680;SDS011;18281;51.364;9.566;2023-02-10T12:00:07;77.97;;;33.83;;
31680;SDS011;18281;51.364;9.566;2023-02-10T12:09:15;77.47;;;30.70;;
31680;SDS011;18281;51.364;9.566;2023-02-10T12:16:51;62.25;;;28.58;;
31680;SDS011;18281;51.364;9.566;2023-02-10T12:19:31;59.77;;;29.93;;
31680;SDS011;18281;51.364;9.566;2023-02-10T12:22:20;62.97;;;29.45;;
31680;SDS011;18281;51.364;9.566;2023-02-10T12:33:45;57.55;;;27.58;;
31680;SDS011;18281;51.364;9.566;2023-02-10T12:36:14;63.65;;;29.27;;
31680;SDS011;18281;51.364;9.566;2023-02-10T12:41:21;63.35;;;30.98;;
31680;SDS011;18281;51.364;9.566;2023-02-10T12:49:30;70.30;;;30.85;;
31680;SDS011;18281;51.364;9.566;2023-02-10T12:52:14;60.97;;;29.40;;
31680;SDS011;18281;51.364;9.566;2023-02-10T12:57:39;42.83;;;20.85;;
31680;SDS011;18281;51.364;9.566;2023-02-10T13:00:21;51.95;;;21.95;;
31680;SDS011;18281;51.364;9.566;2023-02-10T13:02:50;48.75;;;24.08;;
31680;SDS011;18281;51.364;9.566;2023-02-10T13:05:21;61.58;;;27.67;;
31680;SDS011;18281;51.364;9.566;2023-02-10T13:07:53;56.13;;;27.83;;
31680;SDS011;18281;51.364;9.566;2023-02-10T13:10:38;56.40;;;28.92;;
31680;SDS011;18281;51.364;9.566;2023-02-10T13:13:14;60.75;;;30.80;;
31680;SDS011;18281;51.364;9.566;2023-02-10T13:16:18;59.47;;;30.00;;
31680;SDS011;18281;51.364;9.566;2023-02-10T13:18:45;60.22;;;28.48;;
31680;SDS011;18281;51.364;9.566;2023-02-10T13:21:27;62.97;;;28.35;;
31680;SDS011;18281;51.364;9.566;2023-02-10T13:24:00;59.00;;;28.75;;
31680;SDS011;18281;51.364;9.566;2023-02-10T13:26:35;55.85;;;28.45;;
31680;SDS011;18281;51.364;9.566;2023-02-10T13:29:17;59.08;;;27.70;;
31680;SDS011;18281;51.364;9.566;2023-02-10T13:34:28;57.78;;;28.17;;
31680;SDS011;18281;51.364;9.566;2023-02-10T13:39:36;55.08;;;26.85;;
31680;SDS011;18281;51.364;9.566;2023-02-10T13:42:14;57.13;;;27.63;;
31680;SDS011;18281;51.364;9.566;2023-02-10T13:44:55;54.22;;;25.55;;
31680;SDS011;18281;51.364;9.566;2023-02-10T13:47:36;50.95;;;25.15;;
31680;SDS011;18281;51.364;9.566;2023-02-10T13:52:48;56.05;;;25.50;;
31680;SDS011;18281;51.364;9.566;2023-02-10T13:57:49;50.50;;;25.73;;
31680;SDS011;18281;51.364;9.566;2023-02-10T14:00:18;52.20;;;26.73;;
31680;SDS011;18281;51.364;9.566;2023-02-10T14:03:03;51.00;;;25.67;;
31680;SDS011;18281;51.364;9.566;2023-02-10T14:05:55;51.33;;;25.65;;
31680;SDS011;18281;51.364;9.566;2023-02-10T14:08:36;52.33;;;26.10;;
31680;SDS011;18281;51.364;9.566;2023-02-10T14:13:59;48.35;;;25.05;;
31680;SDS011;18281;51.364;9.566;2023-02-10T14:16:44;46.77;;;25.27;;
31680;SDS011;18281;51.364;9.566;2023-02-10T14:21:48;51.50;;;26.17;;
31680;SDS011;18281;51.364;9.566;2023-02-10T14:24:17;49.90;;;26.05;;
31680;SDS011;18281;51.364;9.566;2023-02-10T14:26:47;54.33;;;26.02;;
31680;SDS011;18281;51.364;9.566;2023-02-10T14:29:15;51.00;;;26.50;;
31680;SDS011;18281;51.364;9.566;2023-02-10T14:31:43;57.47;;;26.75;;
31680;SDS011;18281;51.364;9.566;2023-02-10T14:34:32;50.88;;;25.88;;
31680;SDS011;18281;51.364;9.566;2023-02-10T14:37:17;52.83;;;26.00;;
31680;SDS011;18281;51.364;9.566;2023-02-10T14:39:51;50.65;;;25.55;;
31680;SDS011;18281;51.364;9.566;2023-02-10T14:42:17;52.28;;;25.73;;
31680;SDS011;18281;51.364;9.566;2023-02-10T14:44:47;54.85;;;26.30;;
31680;SDS011;18281;51.364;9.566;2023-02-10T14:47:18;48.75;;;25.35;;
31680;SDS011;18281;51.364;9.566;2023-02-10T14:49:48;48.92;;;24.98;;
31680;SDS011;18281;51.364;9.566;2023-02-10T14:52:28;54.50;;;26.27;;
31680;SDS011;18281;51.364;9.566;2023-02-10T14:54:56;53.95;;;26.45;;
31680;SDS011;18281;51.364;9.566;2023-02-10T14:57:23;52.33;;;25.17;;
31680;SDS011;18281;51.364;9.566;2023-02-10T14:59:57;53.95;;;26.88;;
31680;SDS011;18281;51.364;9.566;2023-02-10T15:02:25;52.63;;;25.23;;
31680;SDS011;18281;51.364;9.566;2023-02-10T15:04:57;51.20;;;24.40;;
31680;SDS011;18281;51.364;9.566;2023-02-10T15:07:25;54.22;;;25.77;;
31680;SDS011;18281;51.364;9.566;2023-02-10T15:09:53;57.60;;;26.25;;
31680;SDS011;18281;51.364;9.566;2023-02-10T15:12:23;54.85;;;26.08;;
31680;SDS011;18281;51.364;9.566;2023-02-10T15:15:00;53.97;;;26.40;;
31680;SDS011;18281;51.364;9.566;2023-02-10T15:17:37;52.83;;;26.00;;
31680;SDS011;18281;51.364;9.566;2023-02-10T15:22:44;52.47;;;25.77;;
31680;SDS011;18281;51.364;9.566;2023-02-10T15:25:23;57.45;;;26.38;;
31680;SDS011;18281;51.364;9.566;2023-02-10T15:27:55;55.50;;;25.13;;
31680;SDS011;18281;51.364;9.566;2023-02-10T15:30:24;56.75;;;25.98;;
31680;SDS011;18281;51.364;9.566;2023-02-10T15:32:55;57.38;;;27.27;;
31680;SDS011;18281;51.364;9.566;2023-02-10T15:35:23;51.33;;;26.20;;
31680;SDS011;18281;51.364;9.566;2023-02-10T15:37:49;52.50;;;26.02;;
31680;SDS011;18281;51.364;9.566;2023-02-10T15:40:21;51.22;;;26.73;;
31680;SDS011;18281;51.364;9.566;2023-02-10T15:43:05;52.55;;;25.75;;
31680;SDS011;18281;51.364;9.566;2023-02-10T15:45:47;50.95;;;24.52;;
31680;SDS011;18281;51.364;9.566;2023-02-10T15:48:17;46.63;;;24.27;;
31680;SDS011;18281;51.364;9.566;2023-02-10T15:50:45;51.65;;;24.83;;
31680;SDS011;18281;51.364;9.566;2023-02-10T15:53:11;50.67;;;25.77;;
31680;SDS011;18281;51.364;9.566;2023-02-10T15:55:42;50.90;;;25.80;;
31680;SDS011;18281;51.364;9.566;2023-02-10T15:58:11;46.35;;;24.65;;
31680;SDS011;18281;51.364;9.566;2023-02-10T16:00:37;55.78;;;27.90;;
31680;SDS011;18281;51.364;9.566;2023-02-10T16:03:04;54.22;;;27.30;;
31680;SDS011;18281;51.364;9.566;2023-02-10T16:05:34;49.75;;;26.27;;
31680;SDS011;18281;51.364;9.566;2023-02-10T16:08:21;53.42;;;24.55;;
31680;SDS011;18281;51.364;9.566;2023-02-10T16:10:47;49.97;;;24.75;;
31680;SDS011;18281;51.364;9.566;2023-02-10T16:13:13;48.90;;;24.30;;
31680;SDS011;18281;51.364;9.566;2023-02-10T16:15:40;53.75;;;25.65;;